Time;durP1;ratioP1;P1;durP2;ratioP2;P2;SDS_P1;SDS_P2;PMS_P1;PMS_P2;Temp;Humidity;BMP_temperature;BMP_pressure;BME280_temperature;BME280_humidity;BME280_pressure;Samples;Min_cycle;Max_cycle;Signal;HPM_P1;HPM_P2
2022/04/03 00:00:26;;;;;;;7.82;3.00;;;;;;;0.14;60.01;100145.25;5022275;28;20033;-68
2022/04/03 00:02:51;;;;;;;7.07;2.80;;;;;;;0.13;60.13;100145.31;5026711;28;20450;-68
2022/04/03 00:05:18;;;;;;;10.77;4.53;;;;;;;0.11;60.26;100144.50;5030402;28;20561;-70
2022/04/03 00:07:43;;;;;;;16.67;4.97;;;;;;;0.11;60.41;100145.38;5036706;28;20048;-68
2022/04/03 00:10:09;;;;;;;8.23;3.60;;;;;;;0.08;60.76;100144.59;5031581;28;20199;-66
2022/04/03 00:12:34;;;;;;;9.07;3.50;;;;;;;0.07;60.86;100148.03;5040246;28;20176;-69
2022/04/03 00:14:59;;;;;;;22.15;4.72;;;;;;;0.04;61.19;100149.00;5031035;28;20040;-68
2022/04/03 00:17:24;;;;;;;21.67;7.13;;;;;;;0.05;61.63;100150.69;5031756;28;20045;-67
2022/04/03 00:19:50;;;;;;;10.52;4.53;;;;;;;0.03;61.69;100154.16;5035380;28;20048;-68
2022/04/03 00:22:15;;;;;;;7.22;3.05;;;;;;;0.01;61.69;100151.66;5035819;28;20025;-68
2022/04/03 00:24:41;;;;;;;10.35;1.90;;;;;;;-0.02;62.08;100157.72;5034930;28;20159;-69
2022/04/03 00:27:07;;;;;;;6.15;2.67;;;;;;;-0.02;62.40;100155.13;5038522;28;20400;-70
2022/04/03 00:29:32;;;;;;;8.05;3.65;;;;;;;-0.02;62.48;100154.28;5034257;28;20094;-69
2022/04/03 00:31:58;;;;;;;3.92;2.15;;;;;;;-0.04;62.89;100156.94;5034456;28;20026;-69
2022/04/03 00:34:23;;;;;;;11.23;2.55;;;;;;;-0.06;62.85;100156.09;5017027;28;20359;-70
2022/04/03 00:36:49;;;;;;;3.65;1.95;;;;;;;-0.07;62.85;100157.00;5030394;28;20053;-70
2022/04/03 00:39:14;;;;;;;6.00;2.33;;;;;;;-0.09;62.90;100155.34;5016645;28;20044;-67
2022/04/03 00:41:40;;;;;;;6.15;2.13;;;;;;;-0.10;63.00;100151.06;5035192;28;20041;-70
2022/04/03 00:44:06;;;;;;;10.32;2.70;;;;;;;-0.10;63.19;100156.22;5035920;28;20038;-69
2022/04/03 00:46:33;;;;;;;9.75;2.30;;;;;;;-0.12;63.52;100152.81;5035388;28;20075;-70
2022/04/03 00:49:00;;;;;;;4.22;1.63;;;;;;;-0.17;63.56;100160.69;5028439;28;20013;-69
2022/04/03 00:51:27;;;;;;;7.22;2.22;;;;;;;-0.18;63.45;100158.16;5037185;28;20028;-69
2022/04/03 00:53:53;;;;;;;4.88;1.80;;;;;;;-0.23;63.55;100155.66;5039850;28;20033;-69
2022/04/03 00:56:18;;;;;;;6.57;2.00;;;;;;;-0.25;63.30;100152.31;5036723;28;20041;-67
2022/04/03 00:58:43;;;;;;;6.60;2.10;;;;;;;-0.30;63.73;100148.97;5041840;28;20731;-69
2022/04/03 01:01:09;;;;;;;5.13;2.15;;;;;;;-0.31;63.86;100153.28;5035835;28;20025;-68
2022/04/03 01:03:34;;;;;;;7.78;2.72;;;;;;;-0.34;63.88;100150.78;5038790;28;20033;-70
2022/04/03 01:05:59;;;;;;;7.45;1.85;;;;;;;-0.33;64.19;100160.22;5073261;22;20026;-63
2022/04/03 01:08:25;;;;;;;5.50;2.03;;;;;;;-0.36;64.22;100156.88;5056663;28;20494;-64
2022/04/03 01:10:51;;;;;;;7.18;2.60;;;;;;;-0.40;63.94;100157.84;5058112;28;20512;-64
2022/04/03 01:13:16;;;;;;;6.00;2.10;;;;;;;-0.45;63.96;100149.34;5053085;28;20036;-64
2022/04/03 01:15:42;;;;;;;7.15;2.40;;;;;;;-0.49;64.42;100162.31;5054138;28;20414;-62
2022/04/03 01:18:08;;;;;;;8.25;1.92;;;;;;;-0.53;64.57;100165.00;5048603;28;20045;-64
2022/04/03 01:20:35;;;;;;;6.63;2.08;;;;;;;-0.62;64.73;100160.06;5035514;28;20040;-64
2022/04/03 01:23:00;;;;;;;6.35;2.38;;;;;;;-0.64;64.67;100157.50;5033564;28;20029;-66
2022/04/03 01:25:26;;;;;;;8.25;2.97;;;;;;;-0.64;64.63;100164.41;5052991;28;20508;-65
2022/04/03 01:27:51;;;;;;;7.53;1.80;;;;;;;-0.65;64.87;100160.97;5047044;28;20120;-65
2022/04/03 01:30:16;;;;;;;5.72;1.90;;;;;;;-0.69;65.30;100161.09;5052629;28;20033;-64
2022/04/03 01:32:41;;;;;;;4.93;1.95;;;;;;;-0.73;65.79;100163.72;5049306;28;20096;-63
2022/04/03 01:35:07;;;;;;;5.32;2.10;;;;;;;-0.77;65.33;100166.41;5052453;28;20090;-64
2022/04/03 01:37:33;;;;;;;10.60;2.40;;;;;;;-0.82;65.75;100166.50;5046696;28;20119;-64
2022/04/03 01:39:58;;;;;;;5.25;2.10;;;;;;;-0.83;65.88;100163.97;5036894;28;20025;-64
2022/04/03 01:42:24;;;;;;;9.65;2.30;;;;;;;-0.85;66.30;100170.91;5047154;28;20254;-64
2022/04/03 01:44:49;;;;;;;4.63;1.90;;;;;;;-0.89;66.51;100175.25;5051999;28;20036;-64
2022/04/03 01:47:15;;;;;;;7.38;2.63;;;;;;;-0.92;66.55;100170.19;5050494;28;20042;-65
2022/04/03 01:49:40;;;;;;;9.93;2.28;;;;;;;-0.98;66.73;100167.72;5051104;28;20517;-64
2022/04/03 01:52:05;;;;;;;6.15;2.20;;;;;;;-0.98;67.00;100178.03;5052353;28;20120;-64
2022/04/03 01:54:31;;;;;;;6.82;2.30;;;;;;;-1.07;67.40;100173.94;5044107;28;20533;-63
2022/04/03 01:56:56;;;;;;;6.75;1.83;;;;;;;-1.10;67.70;100171.41;5058098;28;20436;-64
2022/04/03 01:59:22;;;;;;;7.45;2.35;;;;;;;-1.17;67.92;100171.56;5050675;28;20051;-64
2022/04/03 02:01:48;;;;;;;6.63;2.20;;;;;;;-1.30;68.62;100169.25;5048553;28;20033;-66
2022/04/03 02:04:13;;;;;;;14.00;3.50;;;;;;;-1.36;68.80;100173.69;5050500;28;20055;-65
2022/04/03 02:06:40;;;;;;;5.47;2.20;;;;;;;-1.36;68.78;100176.25;5046429;28;20096;-65
2022/04/03 02:09:07;;;;;;;5.95;2.10;;;;;;;-1.50;69.39;100172.22;5029497;28;20091;-66
2022/04/03 02:11:34;;;;;;;5.30;2.20;;;;;;;-1.50;69.75;100172.22;5046103;28;20033;-64
2022/04/03 02:13:59;;;;;;;8.32;2.00;;;;;;;-1.51;70.01;100177.41;5035432;28;20112;-64
2022/04/03 02:16:24;;;;;;;5.95;2.10;;;;;;;-1.54;70.15;100169.75;5045148;28;20459;-64
2022/04/03 02:18:49;;;;;;;10.65;2.78;;;;;;;-1.66;70.82;100169.97;5046496;28;20024;-64
2022/04/03 02:21:15;;;;;;;6.25;2.28;;;;;;;-1.70;70.95;100169.19;5032066;28;20033;-64
2022/04/03 02:23:40;;;;;;;4.78;2.33;;;;;;;-1.73;70.83;100177.78;5046153;28;20098;-63
2022/04/03 02:26:06;;;;;;;13.77;2.42;;;;;;;-1.73;71.03;100176.94;5052994;28;20406;-64
2022/04/03 02:28:31;;;;;;;5.40;2.28;;;;;;;-1.76;70.75;100183.00;5046380;28;20478;-65
2022/04/03 02:30:56;;;;;;;4.63;2.53;;;;;;;-1.76;70.86;100180.41;5047243;28;20025;-64
2022/04/03 02:33:22;;;;;;;4.72;2.10;;;;;;;-1.78;71.01;100189.91;5047121;28;20069;-63
2022/04/03 02:35:47;;;;;;;6.70;2.35;;;;;;;-1.82;71.37;100180.53;5044673;28;20026;-64
2022/04/03 02:38:15;;;;;;;5.55;2.47;;;;;;;-1.84;71.41;100182.28;5034514;28;20040;-63
2022/04/03 02:40:41;;;;;;;4.18;2.10;;;;;;;-1.84;71.79;100186.59;5043904;28;20025;-62
2022/04/03 02:43:06;;;;;;;7.25;2.28;;;;;;;-1.89;71.92;100184.09;5032883;28;20035;-67
2022/04/03 02:45:32;;;;;;;6.18;2.22;;;;;;;-1.90;72.11;100184.94;5046434;28;20045;-64
2022/04/03 02:47:57;;;;;;;7.13;2.63;;;;;;;-1.93;72.43;100190.13;5048444;28;20021;-64
2022/04/03 02:50:25;;;;;;;6.55;2.20;;;;;;;-1.99;72.20;100187.69;5045855;28;20043;-65
2022/04/03 02:52:51;;;;;;;13.07;2.60;;;;;;;-2.00;72.64;100184.28;5048414;28;20041;-63
2022/04/03 02:55:21;;;;;;;5.40;2.08;;;;;;;-2.04;72.67;100185.22;5044472;28;20049;-64
2022/04/03 02:57:46;;;;;;;5.63;2.67;;;;;;;-2.06;73.18;100183.53;5038012;28;20048;-65
2022/04/03 03:00:15;;;;;;;7.13;2.40;;;;;;;-2.10;73.31;100179.31;5031842;28;20045;-66
2022/04/03 03:02:41;;;;;;;6.68;2.28;;;;;;;-2.14;72.94;100183.66;5043242;28;20041;-63
2022/04/03 03:05:07;;;;;;;6.00;2.17;;;;;;;-2.15;73.44;100187.13;5049309;28;20120;-65
2022/04/03 03:07:38;;;;;;;7.05;2.63;;;;;;;-2.21;73.62;100182.91;5047237;28;20057;-64
2022/04/03 03:10:05;;;;;;;9.18;2.90;;;;;;;-2.26;73.86;100179.59;5049976;28;20128;-65
2022/04/03 03:12:30;;;;;;;6.72;2.72;;;;;;;-2.23;73.90;100182.06;5049198;28;20521;-65
2022/04/03 03:14:56;;;;;;;12.18;2.95;;;;;;;-2.25;73.85;100183.00;5033326;28;20029;-65
2022/04/03 03:17:22;;;;;;;8.13;2.65;;;;;;;-2.28;73.88;100190.75;5049721;28;20029;-66
2022/04/03 03:19:48;;;;;;;10.85;3.35;;;;;;;-2.35;73.85;100190.00;5050731;28;20072;-64
2022/04/03 03:22:13;;;;;;;5.13;2.22;;;;;;;-2.45;74.13;100185.88;5050129;28;20029;-64
2022/04/03 03:24:38;;;;;;;5.93;2.55;;;;;;;-2.49;74.91;100190.19;5047617;28;20036;-63
2022/04/03 03:27:04;;;;;;;8.45;3.10;;;;;;;-2.55;74.88;100190.31;5052982;28;20104;-63
2022/04/03 03:29:30;;;;;;;6.35;3.53;;;;;;;-2.60;75.61;100189.50;5052201;28;20029;-67
2022/04/03 03:31:55;;;;;;;9.55;3.05;;;;;;;-2.68;75.62;100192.19;5049238;28;20644;-65
2022/04/03 03:34:20;;;;;;;7.63;2.92;;;;;;;-2.69;75.66;100193.06;5048563;28;20159;-64
2022/04/03 03:36:46;;;;;;;7.95;3.00;;;;;;;-2.73;75.91;100194.00;5049181;28;20048;-65
2022/04/03 03:39:12;;;;;;;5.50;2.78;;;;;;;-2.75;76.38;100198.28;5041949;28;20037;-64
2022/04/03 03:41:37;;;;;;;9.93;3.13;;;;;;;-2.80;76.55;100201.78;5049900;28;20541;-65
2022/04/03 03:44:09;;;;;;;7.60;2.67;;;;;;;-2.84;76.49;100206.13;5046253;28;20045;-64
2022/04/03 03:46:35;;;;;;;5.60;2.90;;;;;;;-2.92;76.58;100203.66;5049366;28;20040;-65
2022/04/03 03:49:01;;;;;;;7.82;2.80;;;;;;;-2.97;76.90;100205.41;5041138;28;20456;-63
2022/04/03 03:51:26;;;;;;;6.97;3.10;;;;;;;-2.96;76.33;100208.84;5048465;28;20060;-64
2022/04/03 03:53:51;;;;;;;8.50;2.65;;;;;;;-3.00;76.92;100208.03;5045040;28;20041;-64
2022/04/03 03:56:17;;;;;;;6.72;2.88;;;;;;;-2.98;76.67;100208.84;5056663;28;20419;-64
2022/04/03 03:58:42;;;;;;;13.73;3.28;;;;;;;-3.00;76.33;100214.91;5044683;28;20047;-63
2022/04/03 04:01:07;;;;;;;7.15;3.17;;;;;;;-3.04;76.27;100208.97;5047116;28;20032;-65
2022/04/03 04:03:32;;;;;;;7.18;3.05;;;;;;;-3.08;76.41;100219.25;5048378;28;20035;-65
2022/04/03 04:05:58;;;;;;;6.38;2.70;;;;;;;-3.14;76.61;100219.34;5050224;28;20147;-66
2022/04/03 04:08:23;;;;;;;11.10;3.60;;;;;;;-3.14;76.87;100222.75;5048616;28;20032;-64
2022/04/03 04:10:48;;;;;;;7.30;2.95;;;;;;;-3.16;76.67;100220.19;5042849;28;20029;-63
2022/04/03 04:13:14;;;;;;;6.20;3.13;;;;;;;-3.20;76.92;100222.81;5043095;28;20029;-65
2022/04/03 04:15:39;;;;;;;6.40;2.85;;;;;;;-3.24;77.53;100221.16;5041852;28;20044;-64
2022/04/03 04:18:05;;;;;;;9.05;3.03;;;;;;;-3.25;77.13;100224.59;5040461;28;20038;-64
2022/04/03 04:20:30;;;;;;;5.95;2.63;;;;;;;-3.24;77.23;100226.28;5047192;28;20036;-64
2022/04/03 04:22:55;;;;;;;12.18;3.17;;;;;;;-3.23;77.50;100238.22;5047516;28;20482;-64
2022/04/03 04:25:21;;;;;;;6.55;2.97;;;;;;;-3.21;76.86;100239.06;5048605;28;20036;-62
2022/04/03 04:27:47;;;;;;;8.23;3.10;;;;;;;-3.20;77.58;100244.16;5047731;28;20029;-64
2022/04/03 04:30:14;;;;;;;6.75;3.33;;;;;;;-3.26;77.16;100248.53;5048474;28;20051;-63
2022/04/03 04:32:41;;;;;;;7.60;3.15;;;;;;;-3.26;76.41;100246.81;5049159;28;20070;-65
2022/04/03 04:35:07;;;;;;;6.63;2.78;;;;;;;-3.30;77.01;100251.97;5041526;28;20049;-64
2022/04/03 04:37:33;;;;;;;7.10;3.03;;;;;;;-3.35;76.83;100244.34;5047440;28;20040;-64
2022/04/03 04:39:59;;;;;;;7.93;3.42;;;;;;;-3.39;77.08;100254.66;5048499;28;20025;-63
2022/04/03 04:42:24;;;;;;;8.75;3.17;;;;;;;-3.43;77.24;100254.69;5048654;28;20035;-65
2022/04/03 04:44:49;;;;;;;8.32;3.72;;;;;;;-3.40;77.15;100251.25;5028755;28;20082;-64
2022/04/03 04:47:15;;;;;;;5.72;3.03;;;;;;;-3.43;77.16;100246.16;5047180;28;20116;-63
2022/04/03 04:49:40;;;;;;;10.45;2.90;;;;;;;-3.44;76.91;100250.44;5046501;28;20033;-63
2022/04/03 04:52:06;;;;;;;7.68;3.05;;;;;;;-3.45;76.78;100250.44;5048075;28;20091;-65
2022/04/03 04:54:31;;;;;;;9.57;3.30;;;;;;;-3.51;76.55;100242.81;5028406;28;20200;-63
2022/04/03 04:56:58;;;;;;;6.93;3.20;;;;;;;-3.51;76.82;100253.06;5029316;28;20045;-65
2022/04/03 04:59:23;;;;;;;9.13;3.28;;;;;;;-3.53;77.07;100257.34;5044099;28;20041;-64
2022/04/03 05:01:49;;;;;;;9.50;3.95;;;;;;;-3.58;77.31;100251.44;5047560;28;20389;-62
2022/04/03 05:04:15;;;;;;;7.55;3.22;;;;;;;-3.55;77.61;100259.94;5047031;28;20505;-63
2022/04/03 05:06:41;;;;;;;8.00;2.92;;;;;;;-3.52;77.03;100261.59;5047682;28;20133;-64
2022/04/03 05:09:07;;;;;;;10.90;3.55;;;;;;;-3.55;77.63;100267.63;5046166;28;20041;-65
2022/04/03 05:11:33;;;;;;;10.65;3.08;;;;;;;-3.54;77.64;100268.47;5047931;28;20037;-64
2022/04/03 05:13:58;;;;;;;8.43;2.75;;;;;;;-3.53;77.43;100265.88;5046363;28;20033;-64
2022/04/03 05:16:24;;;;;;;9.48;3.55;;;;;;;-3.39;80.42;100270.03;5047013;28;20052;-65
2022/04/03 05:18:50;;;;;;;6.40;2.63;;;;;;;-3.38;77.51;100270.00;5048377;28;20475;-62
2022/04/03 05:21:16;;;;;;;6.25;3.05;;;;;;;-3.18;78.12;100272.38;5051335;28;20044;-64
2022/04/03 05:23:41;;;;;;;9.27;3.38;;;;;;;-3.32;76.30;100287.06;5030779;28;20063;-64
2022/04/03 05:26:07;;;;;;;7.25;3.05;;;;;;;-3.33;76.59;100283.63;5050811;28;20037;-65
2022/04/03 05:28:32;;;;;;;7.65;3.13;;;;;;;-3.34;76.39;100278.50;5050431;28;20454;-64
2022/04/03 05:30:58;;;;;;;13.43;3.53;;;;;;;-3.36;76.48;100281.09;5051830;28;20395;-64
2022/04/03 05:33:24;;;;;;;10.85;3.20;;;;;;;-3.36;76.17;100278.53;5043976;28;20047;-69
2022/04/03 05:35:50;;;;;;;6.88;3.38;;;;;;;-3.29;76.29;100284.47;5051700;28;20044;-62
2022/04/03 05:38:16;;;;;;;6.88;3.10;;;;;;;-3.31;75.97;100284.47;5050772;28;20061;-65
2022/04/03 05:40:41;;;;;;;7.55;2.55;;;;;;;-3.31;75.36;100281.91;5051595;28;20100;-64
2022/04/03 05:43:08;;;;;;;7.35;2.65;;;;;;;-3.16;74.75;100291.97;5051210;28;20725;-63
2022/04/03 05:45:33;;;;;;;9.50;3.10;;;;;;;-3.07;74.37;100291.06;5051094;28;20041;-67
2022/04/03 05:47:59;;;;;;;9.82;3.05;;;;;;;-2.99;74.33;100288.41;5031153;28;20037;-64
2022/04/03 05:50:24;;;;;;;15.05;3.03;;;;;;;-2.94;73.77;100291.75;5051732;28;20037;-67
2022/04/03 05:52:51;;;;;;;8.05;2.72;;;;;;;-2.92;72.68;100302.84;5035282;28;20064;-65
2022/04/03 05:55:20;;;;;;;8.55;2.85;;;;;;;-2.92;73.36;100306.25;5055506;28;20028;-62
2022/04/03 05:57:47;;;;;;;7.50;3.22;;;;;;;-2.85;72.75;100314.75;5037463;28;20086;-64
2022/04/03 06:00:14;;;;;;;4.97;2.85;;;;;;;-2.69;72.01;100313.69;5056594;28;20516;-64
2022/04/03 06:02:59;;;;;;;6.78;2.88;;;;;;;-2.55;72.11;100318.66;5058591;28;20419;-64
2022/04/03 06:05:26;;;;;;;5.97;2.50;;;;;;;-2.37;70.76;100312.41;5045205;28;20052;-65
2022/04/03 06:07:52;;;;;;;11.18;3.08;;;;;;;-2.31;70.28;100324.31;5053305;28;20036;-64
2022/04/03 06:10:19;;;;;;;7.85;2.92;;;;;;;-2.16;69.15;100320.69;5057809;28;20052;-64
2022/04/03 06:12:58;;;;;;;5.07;2.47;;;;;;;-2.08;68.69;100311.97;5055897;28;20049;-65
2022/04/03 06:15:26;;;;;;;9.18;3.35;;;;;;;-2.02;68.33;100324.75;5050202;28;20041;-65
2022/04/03 06:17:52;;;;;;;5.40;2.25;;;;;;;-1.91;68.01;100332.28;5052641;28;20171;-64
2022/04/03 06:20:18;;;;;;;6.65;2.95;;;;;;;-1.87;67.73;100322.81;5055752;28;20094;-65
2022/04/03 06:22:44;;;;;;;7.70;2.47;;;;;;;-1.75;67.46;100328.59;5038289;28;20363;-64
2022/04/03 06:25:10;;;;;;;12.20;2.53;;;;;;;-1.67;66.52;100323.34;5051746;28;20040;-64
2022/04/03 06:27:35;;;;;;;7.00;3.13;;;;;;;-1.54;66.50;100334.28;5035701;28;20061;-65
2022/04/03 06:30:00;;;;;;;6.68;2.70;;;;;;;-1.39;66.29;100343.47;5050793;28;20446;-65
2022/04/03 06:32:25;;;;;;;6.03;2.40;;;;;;;-1.30;65.29;100333.88;5058249;28;20048;-65
2022/04/03 06:34:52;;;;;;;7.57;3.10;;;;;;;-1.40;65.40;100337.47;5050956;28;20116;-64
2022/04/03 06:37:17;;;;;;;6.30;2.70;;;;;;;-1.39;65.95;100328.88;5050982;28;20027;-65
2022/04/03 06:39:42;;;;;;;7.45;2.67;;;;;;;-144.47;50.56;53497.69;5050615;28;20128;-65
2022/04/03 06:42:08;;;;;;;6.20;2.85;;;;;;;-144.47;50.41;53483.78;5052597;28;20410;-66
2022/04/03 06:44:34;;;;;;;5.18;2.33;;;;;;;-144.47;50.02;53463.91;5054871;28;20059;-64
2022/04/03 06:47:00;;;;;;;6.82;2.72;;;;;;;-144.47;49.45;53461.91;5054261;28;20057;-66
2022/04/03 06:49:26;;;;;;;6.28;2.63;;;;;;;-144.47;49.46;53505.63;5036783;28;20104;-65
2022/04/03 06:51:51;;;;;;;5.90;2.80;;;;;;;-144.47;49.64;53497.69;5054080;28;20498;-63
2022/04/03 06:54:16;;;;;;;5.65;2.30;;;;;;;-144.47;49.19;53475.81;5052409;28;20094;-65
2022/04/03 06:56:42;;;;;;;6.35;2.47;;;;;;;-144.47;49.15;53455.97;5046400;28;20033;-63
2022/04/03 06:59:07;;;;;;;6.97;2.35;;;;;;;-144.47;48.38;53473.84;5051605;28;20045;-68
2022/04/03 07:01:32;;;;;;;5.32;2.60;;;;;;;-144.47;48.21;53418.22;5053525;28;20100;-65
2022/04/03 07:03:57;;;;;;;10.05;2.83;;;;;;;-144.47;48.54;53473.84;5054782;28;20017;-64
2022/04/03 07:06:23;;;;;;;6.38;2.55;;;;;;;-144.47;48.36;53463.91;5055019;28;20040;-66
2022/04/03 07:08:48;;;;;;;5.65;2.58;;;;;;;-144.47;48.79;53465.91;5052985;28;20506;-65
2022/04/03 07:11:15;;;;;;;8.23;2.72;;;;;;;-144.47;48.52;53467.88;5053094;28;20545;-65
2022/04/03 07:13:40;;;;;;;6.30;2.90;;;;;;;-144.47;48.09;53485.75;5062461;22;20057;-70
2022/04/03 07:16:05;;;;;;;7.18;2.70;;;;;;;-144.47;48.02;53434.09;5047344;28;20090;-69
2022/04/03 07:18:31;;;;;;;10.50;2.90;;;;;;;-144.47;47.82;53446.03;5050563;28;20037;-68
2022/04/03 07:20:56;;;;;;;9.70;3.58;;;;;;;-144.47;47.58;53459.94;5049631;28;20045;-70
2022/04/03 07:23:24;;;;;;;5.57;2.70;;;;;;;-144.47;47.44;53467.88;5043421;28;20044;-69
2022/04/03 07:25:49;;;;;;;5.57;2.67;;;;;;;-144.47;47.81;53483.78;5031656;28;20513;-68
2022/04/03 07:28:15;;;;;;;9.18;2.63;;;;;;;-144.47;47.96;53461.91;5048580;28;20029;-69
2022/04/03 07:30:40;;;;;;;8.40;2.50;;;;;;;-144.47;47.84;53465.91;5044952;28;20032;-68
2022/04/03 07:33:05;;;;;;;7.13;2.65;;;;;;;-144.47;47.34;53444.03;5043949;28;20496;-67
2022/04/03 07:35:31;;;;;;;7.20;2.45;;;;;;;-144.47;46.86;53467.88;5049168;28;20037;-68
2022/04/03 07:37:56;;;;;;;8.60;2.80;;;;;;;-144.47;45.96;53414.25;5048588;28;20029;-67
2022/04/03 07:40:22;;;;;;;5.13;2.30;;;;;;;-144.47;46.26;53455.97;5049407;28;20083;-69
2022/04/03 07:42:49;;;;;;;7.32;2.40;;;;;;;-144.47;45.73;53463.91;5047001;28;20473;-69
2022/04/03 07:45:15;;;;;;;6.63;2.75;;;;;;;-144.47;45.86;53473.84;5047854;28;20449;-68
2022/04/03 07:47:48;;;;;;;5.82;2.55;;;;;;;-144.47;46.01;53422.19;5048378;28;20051;-67
2022/04/03 07:50:14;;;;;;;7.78;2.63;;;;;;;-144.47;45.84;53469.88;5047986;28;20456;-67
2022/04/03 07:52:40;;;;;;;13.07;2.95;;;;;;;-144.47;45.46;53483.78;5046023;28;20032;-69
2022/04/03 07:55:06;;;;;;;9.38;3.08;;;;;;;-144.47;45.20;53463.91;5046628;28;20505;-67
2022/04/03 07:57:31;;;;;;;6.90;2.55;;;;;;;-144.47;45.04;53489.72;5045259;28;20037;-66
2022/04/03 07:59:56;;;;;;;6.30;2.40;;;;;;;-144.47;44.58;53453.97;5046860;28;20037;-68
2022/04/03 08:02:22;;;;;;;6.97;2.53;;;;;;;-144.47;44.54;53410.28;5045544;28;20079;-67
2022/04/03 08:04:47;;;;;;;6.55;2.35;;;;;;;-144.47;44.68;53467.88;5047075;28;20110;-68
2022/04/03 08:07:12;;;;;;;5.90;2.40;;;;;;;-144.47;44.83;53438.09;5048087;28;20039;-68
2022/04/03 08:09:38;;;;;;;9.82;2.60;;;;;;;-144.47;45.21;53422.19;5046866;28;20036;-69
2022/04/03 08:12:05;;;;;;;11.43;3.00;;;;;;;-144.47;45.55;53436.09;5029597;28;20048;-69
2022/04/03 08:14:31;;;;;;;10.07;2.53;;;;;;;-144.47;44.31;53438.09;5046317;28;20132;-68
2022/04/03 08:16:56;;;;;;;5.68;2.05;;;;;;;-144.47;44.24;53434.09;5046671;28;20116;-70
2022/04/03 08:19:21;;;;;;;7.05;2.95;;;;;;;-144.47;44.57;53416.22;5049569;28;20021;-70
2022/04/03 08:21:46;;;;;;;6.78;2.30;;;;;;;-144.47;43.80;53438.09;5047493;28;20090;-69
2022/04/03 08:24:12;;;;;;;5.53;2.03;;;;;;;-144.47;42.94;53446.03;5046783;28;20029;-69
2022/04/03 08:26:37;;;;;;;11.73;2.30;;;;;;;-144.47;42.81;53398.34;5048488;28;20343;-69
2022/04/03 08:29:02;;;;;;;5.88;2.30;;;;;;;-144.47;43.02;53418.22;5047380;28;20044;-69
2022/04/03 08:31:28;;;;;;;5.53;2.15;;;;;;;-144.47;42.88;53436.09;5047419;28;20043;-70
2022/04/03 08:33:53;;;;;;;5.07;2.17;;;;;;;-144.47;42.29;53471.84;5047480;28;20462;-68
2022/04/03 08:36:19;;;;;;;3.38;1.70;;;;;;;-144.47;40.75;53412.25;5045232;28;20112;-68
2022/04/03 08:38:46;;;;;;;4.57;1.80;;;;;;;-144.47;40.93;53452.00;5047327;28;20390;-69
2022/04/03 08:41:12;;;;;;;4.63;1.65;;;;;;;-144.47;40.63;53424.19;5047257;28;20064;-72
2022/04/03 08:43:40;;;;;;;4.30;1.85;;;;;;;-144.47;40.41;53420.22;5028645;28;20056;-70
2022/04/03 08:46:07;;;;;;;5.05;1.83;;;;;;;-144.47;40.23;53422.19;5048870;28;20024;-70
2022/04/03 08:48:32;;;;;;;4.65;1.80;;;;;;;-144.47;39.76;53453.97;5047385;28;20037;-71
2022/04/03 08:51:02;;;;;;;10.93;2.40;;;;;;;-144.47;40.04;53436.09;5048554;28;20391;-70
2022/04/03 08:53:29;;;;;;;4.75;1.98;;;;;;;-144.47;39.54;53455.97;5047821;28;20033;-71
2022/04/03 08:55:55;;;;;;;3.88;1.73;;;;;;;-144.47;39.71;53400.34;5052124;28;20120;-70
2022/04/03 08:58:20;;;;;;;6.32;1.50;;;;;;;-144.47;38.85;53394.38;5050937;28;20104;-69
2022/04/03 09:00:45;;;;;;;10.43;2.25;;;;;;;-144.47;39.37;53426.16;5050965;28;20048;-68
2022/04/03 09:03:12;;;;;;;4.88;2.10;;;;;;;-144.47;38.37;53436.09;5034055;28;20041;-71
2022/04/03 09:05:39;;;;;;;3.95;1.77;;;;;;;-144.47;37.97;53457.94;5041663;28;20032;-71
2022/04/03 09:08:05;;;;;;;3.75;1.70;;;;;;;-144.47;38.09;53412.25;5050249;28;20466;-69
2022/04/03 09:10:31;;;;;;;8.45;3.78;;;;;;;-144.47;37.65;53398.34;5055884;28;20052;-68
2022/04/03 09:12:57;;;;;;;8.90;3.10;;;;;;;-144.47;36.46;53372.53;5057493;28;20032;-69
2022/04/03 09:15:24;;;;;;;3.63;1.80;;;;;;;-144.47;35.38;53432.13;5054145;28;20029;-69
2022/04/03 09:17:54;;;;;;;3.05;1.30;;;;;;;-144.47;34.24;53408.28;5032523;28;20467;-69
2022/04/03 09:20:22;;;;;;;5.75;1.70;;;;;;;-144.47;33.81;53370.53;5050173;28;20109;-69
2022/04/03 09:22:53;;;;;;;5.95;1.95;;;;;;;-144.47;33.86;53382.47;5049225;28;20033;-70
2022/04/03 09:25:29;;;;;;;2.33;1.30;;;;;;;-144.47;34.24;53376.50;5050005;28;20054;-68
2022/04/03 09:28:03;;;;;;;4.38;1.63;;;;;;;-144.47;34.14;53420.22;5047253;28;20041;-68
2022/04/03 09:30:38;;;;;;;3.75;1.50;;;;;;;-144.47;34.10;53412.25;5046365;28;20043;-68
2022/04/03 09:33:09;;;;;;;2.45;1.20;;;;;;;-144.47;32.97;53396.38;5048252;28;20049;-70
2022/04/03 09:35:57;;;;;;;3.90;1.50;;;;;;;-144.47;33.74;53386.44;5050133;28;20057;-66
2022/04/03 09:38:23;;;;;;;4.65;1.55;;;;;;;-144.47;34.34;53416.22;5048975;28;20090;-68
2022/04/03 09:40:52;;;;;;;4.95;1.40;;;;;;;-144.47;33.77;53416.22;5050186;28;20036;-67
2022/04/03 09:43:24;;;;;;;;;;;;;;;-144.47;34.40;53384.44;5049005;28;20033;-68
2022/04/03 09:46:07;;;;;;;5.55;1.80;;;;;;;-144.47;34.74;53364.59;5032755;28;19924;-65
2022/04/03 09:48:36;;;;;;;3.50;1.30;;;;;;;-144.47;34.01;53414.25;5047853;28;20032;-65
2022/04/03 09:51:19;;;;;;;5.45;1.70;;;;;;;-144.47;33.75;53378.50;5049823;28;20555;-67
2022/04/03 09:53:46;;;;;;;4.47;1.50;;;;;;;-144.47;33.39;53434.09;5032243;28;20119;-67
2022/04/03 09:56:15;;;;;;;2.63;1.35;;;;;;;-144.47;33.17;53352.66;5048792;28;20125;-68
2022/04/03 09:58:53;;;;;;;2.27;1.23;;;;;;;-144.47;33.22;53390.41;5049196;28;20021;-65
2022/04/03 10:01:26;;;;;;;10.93;1.77;;;;;;;-144.47;33.47;53372.53;5050589;28;20017;-67
2022/04/03 10:03:52;;;;;;;5.50;1.73;;;;;;;-144.47;34.13;53400.34;5047103;28;20079;-67
2022/04/03 10:06:18;;;;;;;7.63;1.80;;;;;;;-144.47;34.44;53366.56;5049377;28;20033;-66
2022/04/03 10:08:46;;;;;;;3.00;1.55;;;;;;;-144.47;34.19;53372.53;5048625;28;20039;-66
2022/04/03 10:11:12;;;;;;;2.72;1.20;;;;;;;-144.47;34.34;53392.41;5032130;28;20033;-68
2022/04/03 10:13:38;;;;;;;3.67;1.60;;;;;;;-144.47;33.96;53394.38;5053175;28;20391;-68
2022/04/03 10:16:04;;;;;;;3.35;1.52;;;;;;;-144.47;33.52;53398.34;5049139;28;20028;-68
2022/04/03 10:18:30;;;;;;;4.55;1.40;;;;;;;-144.47;33.50;53368.56;5048373;28;20071;-67
2022/04/03 10:20:55;;;;;;;2.75;1.30;;;;;;;-144.47;32.83;53372.53;5048211;28;20033;-67
2022/04/03 10:23:24;;;;;;;4.32;1.30;;;;;;;-144.47;32.74;53404.31;5047404;28;20033;-68
2022/04/03 10:25:52;;;;;;;4.30;1.40;;;;;;;-144.47;32.75;53356.63;5047962;28;20039;-67
2022/04/03 10:28:20;;;;;;;2.53;1.40;;;;;;;-144.47;32.65;53408.28;5047871;28;20045;-68
2022/04/03 10:30:58;;;;;;;3.67;2.28;;;;;;;-144.47;31.72;53396.38;5048352;28;20075;-68
2022/04/03 10:33:26;;;;;;;2.30;1.30;;;;;;;-144.47;31.36;53374.50;5042453;28;20032;-68
2022/04/03 10:36:09;;;;;;;5.47;1.40;;;;;;;-144.47;30.64;53380.47;5044171;28;20033;-67
2022/04/03 10:38:54;;;;;;;2.30;1.38;;;;;;;-144.47;30.69;53368.56;5048234;28;20177;-68
2022/04/03 10:41:31;;;;;;;3.67;1.20;;;;;;;-144.47;30.51;53374.50;5049599;28;20040;-67
2022/04/03 10:44:18;;;;;;;2.83;1.42;;;;;;;-144.47;30.81;53350.69;5048358;28;20526;-68
2022/04/03 10:47:01;;;;;;;3.95;1.40;;;;;;;-144.47;30.89;53342.72;5048720;28;20033;-68
2022/04/03 10:49:30;;;;;;;5.72;1.77;;;;;;;-144.47;30.60;53368.56;5044369;28;20016;-67
2022/04/03 10:52:00;;;;;;;6.68;1.10;;;;;;;-144.47;30.24;53376.50;5043029;28;20045;-69
2022/04/03 10:54:30;;;;;;;7.30;1.63;;;;;;;-144.47;30.09;53350.69;5034190;28;20828;-67
2022/04/03 10:57:33;;;;;;;4.78;1.52;;;;;;;-144.47;29.89;53376.50;5034697;28;20029;-67
2022/04/03 11:00:14;;;;;;;4.50;1.75;;;;;;;-144.47;30.44;53366.56;5039642;28;20040;-67
2022/04/03 11:02:42;;;;;;;3.65;1.40;;;;;;;-144.47;30.80;53372.53;5040561;28;20049;-66
2022/04/03 11:05:26;;;;;;;3.60;1.90;;;;;;;-144.47;30.39;53350.69;5032942;28;20519;-68
2022/04/03 11:08:00;;;;;;;3.28;1.75;;;;;;;-144.47;30.73;53352.66;5038384;28;20086;-66
2022/04/03 11:10:54;;;;;;;4.30;1.40;;;;;;;-144.47;30.09;53354.66;5040161;28;20024;-68
2022/04/03 11:13:31;;;;;;;3.47;1.52;;;;;;;-144.47;30.49;53398.34;5039553;28;20454;-67
2022/04/03 11:16:01;;;;;;;3.05;1.42;;;;;;;-144.47;30.44;53372.53;5036675;28;20033;-67
2022/04/03 11:18:33;;;;;;;3.30;1.40;;;;;;;-144.47;30.42;53352.66;5038085;28;20045;-68
2022/04/03 11:21:18;;;;;;;3.80;1.50;;;;;;;-144.47;29.94;53354.66;5041754;28;20051;-67